createdAt,value
2022-12-08T00:01:24.575Z,92.28
2022-12-08T00:03:52.174Z,92.18
2022-12-08T00:06:50.044Z,92.05
2022-12-08T00:09:39.447Z,92.09
2022-12-08T00:12:13.249Z,91.92
2022-12-08T00:14:45.866Z,92.10
2022-12-08T00:17:14.581Z,91.96
2022-12-08T00:19:42.392Z,92.01
2022-12-08T00:22:11.013Z,92.10
2022-12-08T00:24:39.999Z,92.02
2022-12-08T00:27:08.837Z,91.96
2022-12-08T00:29:36.058Z,91.83
2022-12-08T00:32:03.334Z,91.97
2022-12-08T00:34:31.509Z,91.64
2022-12-08T00:36:58.515Z,91.89
2022-12-08T00:39:25.568Z,91.77
2022-12-08T00:42:11.096Z,91.76
2022-12-08T00:44:38.864Z,91.37
2022-12-08T00:47:05.913Z,91.01
2022-12-08T00:49:32.933Z,90.84
2022-12-08T00:52:00.226Z,90.97
2022-12-08T00:54:27.226Z,90.89
2022-12-08T00:56:54.318Z,90.72
2022-12-08T00:59:21.394Z,90.62
2022-12-08T01:01:48.688Z,91.02
2022-12-08T01:04:17.975Z,90.84
2022-12-08T01:06:45.713Z,90.44
2022-12-08T01:09:15.707Z,90.78
2022-12-08T01:11:44.703Z,90.27
2022-12-08T01:14:12.737Z,90.35
2022-12-08T01:16:41.663Z,90.44
2022-12-08T01:19:12.192Z,90.66
2022-12-08T01:21:40.428Z,90.59
2022-12-08T01:24:08.035Z,90.37
2022-12-08T01:26:35.089Z,90.36
2022-12-08T01:29:02.155Z,90.22
2022-12-08T01:31:29.256Z,90.09
2022-12-08T01:33:56.804Z,90.35
2022-12-08T01:36:29.115Z,90.62
2022-12-08T01:38:58.744Z,90.24
2022-12-08T01:41:30.509Z,90.43
2022-12-08T01:44:10.904Z,90.11
2022-12-08T01:46:41.129Z,90.25
2022-12-08T01:49:24.903Z,89.99
2022-12-08T01:52:30.476Z,89.53
2022-12-08T01:55:10.768Z,90.10
2022-12-08T01:57:44.256Z,89.96
2022-12-08T02:00:15.070Z,90.08
2022-12-08T02:03:07.249Z,89.24
2022-12-08T02:05:39.979Z,90.13
2022-12-08T02:08:10.830Z,90.19
2022-12-08T02:10:41.169Z,89.96
2022-12-08T02:13:12.584Z,90.18
2022-12-08T02:15:53.577Z,89.54
2022-12-08T02:19:28.577Z,89.79
2022-12-08T02:22:04.898Z,89.90
2022-12-08T02:24:40.250Z,89.93
2022-12-08T02:27:36.748Z,89.74
2022-12-08T02:30:22.266Z,89.76
2022-12-08T02:33:14.205Z,89.07
2022-12-08T02:36:01.149Z,88.88
2022-12-08T02:38:31.010Z,89.04
2022-12-08T02:41:01.078Z,88.82
2022-12-08T02:43:44.102Z,89.08
2022-12-08T02:46:22.055Z,89.34
2022-12-08T02:48:51.744Z,89.38
2022-12-08T02:51:19.975Z,88.86
2022-12-08T02:53:48.209Z,89.20
2022-12-08T02:56:15.234Z,89.15
2022-12-08T02:58:51.165Z,88.73
2022-12-08T03:01:18.232Z,88.96
2022-12-08T03:04:06.303Z,88.87
2022-12-08T03:06:50.653Z,88.34
2022-12-08T03:09:43.649Z,88.09
2022-12-08T03:12:16.796Z,88.33
2022-12-08T03:14:48.376Z,87.45
2022-12-08T03:17:19.613Z,87.72
2022-12-08T03:19:49.127Z,87.76
2022-12-08T03:22:20.172Z,87.63
2022-12-08T03:24:47.519Z,87.47
2022-12-08T03:27:21.174Z,87.78
2022-12-08T03:29:51.070Z,87.51
2022-12-08T03:32:36.537Z,87.41
2022-12-08T03:35:09.679Z,86.98
2022-12-08T03:37:38.574Z,87.33
2022-12-08T03:40:08.844Z,87.12
2022-12-08T03:42:35.833Z,87.38
2022-12-08T03:45:03.358Z,86.97
2022-12-08T03:47:30.434Z,87.52
2022-12-08T03:49:57.513Z,87.61
2022-12-08T03:52:24.741Z,88.13
2022-12-08T03:54:51.766Z,88.34
2022-12-08T03:57:18.761Z,88.26
2022-12-08T03:59:45.748Z,87.91
2022-12-08T04:02:12.849Z,88.56
2022-12-08T04:04:40.073Z,88.46
2022-12-08T04:07:07.193Z,88.68
2022-12-08T04:09:34.245Z,88.72
2022-12-08T04:12:01.233Z,89.10
2022-12-08T04:14:28.263Z,88.72
2022-12-08T04:16:55.362Z,88.99
2022-12-08T04:19:22.460Z,89.02
2022-12-08T04:21:49.558Z,88.83
2022-12-08T04:24:16.607Z,89.37
2022-12-08T04:26:43.795Z,89.54
2022-12-08T04:29:10.835Z,89.38
2022-12-08T04:31:38.235Z,89.19
2022-12-08T04:34:05.340Z,89.39
2022-12-08T04:36:32.474Z,89.71
2022-12-08T04:38:59.473Z,89.75
2022-12-08T04:41:26.629Z,89.99
2022-12-08T04:43:53.684Z,90.22
2022-12-08T04:46:20.830Z,90.23
2022-12-08T04:48:48.001Z,90.33
2022-12-08T04:51:19.475Z,90.32
2022-12-08T04:53:47.533Z,90.11
2022-12-08T04:56:19.483Z,89.91
2022-12-08T04:58:46.560Z,90.08
2022-12-08T05:01:14.218Z,90.10
2022-12-08T05:03:41.331Z,90.33
2022-12-08T05:06:11.124Z,90.74
2022-12-08T05:08:38.174Z,90.10
2022-12-08T05:11:07.684Z,90.38
2022-12-08T05:13:34.895Z,90.20
2022-12-08T05:16:07.938Z,90.63
2022-12-08T05:18:35.756Z,90.59
2022-12-08T05:21:03.613Z,90.21
2022-12-08T05:23:30.719Z,90.40
2022-12-08T05:25:58.397Z,90.55
2022-12-08T05:28:41.405Z,90.84
2022-12-08T05:31:10.290Z,90.94
2022-12-08T05:33:37.375Z,90.91
2022-12-08T05:36:04.610Z,90.66
2022-12-08T05:38:31.661Z,91.14
2022-12-08T05:40:58.820Z,91.25
2022-12-08T05:43:25.867Z,91.61
2022-12-08T05:45:52.895Z,91.70
2022-12-08T05:48:19.926Z,91.51
2022-12-08T05:50:48.257Z,91.79
2022-12-08T05:53:17.012Z,91.57
2022-12-08T05:55:44.739Z,91.40
2022-12-08T05:58:17.898Z,91.07
2022-12-08T06:00:45.893Z,91.35
2022-12-08T06:03:14.258Z,91.73
2022-12-08T06:05:42.835Z,91.12
2022-12-08T06:08:10.480Z,91.70
2022-12-08T06:10:45.474Z,92.01
2022-12-08T06:13:13.283Z,91.97
2022-12-08T06:15:40.754Z,91.92
2022-12-08T06:18:08.769Z,92.47
2022-12-08T06:20:35.868Z,91.93
2022-12-08T06:23:03.684Z,92.25
2022-12-08T06:25:30.949Z,92.16
2022-12-08T06:27:58.044Z,92.78
2022-12-08T06:30:25.071Z,92.88
2022-12-08T06:32:52.270Z,93.40
2022-12-08T06:35:19.412Z,93.26
2022-12-08T06:37:46.448Z,92.98
2022-12-08T06:40:13.908Z,93.18
2022-12-08T06:42:43.919Z,93.19
2022-12-08T06:45:20.079Z,93.12
2022-12-08T06:47:47.150Z,93.39
2022-12-08T06:50:15.062Z,93.34
2022-12-08T06:52:55.790Z,93.44
2022-12-08T06:55:59.430Z,93.25
2022-12-08T06:58:16.174Z,93.20
2022-12-08T07:00:43.978Z,93.14
2022-12-08T07:03:11.955Z,93.58
2022-12-08T07:05:39.466Z,93.74
2022-12-08T07:08:08.911Z,93.33
2022-12-08T07:10:36.505Z,93.61
2022-12-08T07:13:04.200Z,93.83
2022-12-08T07:15:31.291Z,94.03
2022-12-08T07:18:00.243Z,93.51
2022-12-08T07:20:28.392Z,93.83
2022-12-08T07:22:55.504Z,93.93
2022-12-08T07:25:22.652Z,93.47
2022-12-08T07:27:51.754Z,93.84
2022-12-08T07:30:19.168Z,93.59
2022-12-08T07:32:46.613Z,93.89
2022-12-08T07:35:13.956Z,93.50
2022-12-08T07:37:41.064Z,94.03
2022-12-08T07:40:09.347Z,94.00
2022-12-08T07:42:36.474Z,94.03
2022-12-08T07:45:03.760Z,94.27
2022-12-08T07:47:31.118Z,94.07
2022-12-08T07:49:58.159Z,93.96
2022-12-08T07:52:25.344Z,94.61
2022-12-08T07:54:52.404Z,94.17
2022-12-08T07:57:19.449Z,94.54
2022-12-08T07:59:46.448Z,94.49
2022-12-08T08:02:26.283Z,94.87
2022-12-08T08:04:53.775Z,95.11
2022-12-08T08:07:21.037Z,95.10
2022-12-08T08:09:48.113Z,94.63
2022-12-08T08:12:30.705Z,94.73
2022-12-08T08:14:59.219Z,95.32
2022-12-08T08:17:26.390Z,95.00
2022-12-08T08:19:53.563Z,95.03
2022-12-08T08:22:20.594Z,95.23
2022-12-08T08:24:47.583Z,95.16
2022-12-08T08:27:14.746Z,95.30
2022-12-08T08:29:41.876Z,95.30
2022-12-08T08:32:09.065Z,95.61
2022-12-08T08:34:36.154Z,95.22
2022-12-08T08:37:03.286Z,95.24
2022-12-08T08:39:31.997Z,95.46
2022-12-08T08:41:59.298Z,95.65
2022-12-08T08:44:26.478Z,95.42
2022-12-08T08:46:53.752Z,95.79
2022-12-08T08:49:21.547Z,95.79
2022-12-08T08:51:48.654Z,95.57
2022-12-08T08:54:15.925Z,95.98
2022-12-08T08:56:43.022Z,95.81
2022-12-08T08:59:10.911Z,95.86
2022-12-08T09:01:37.969Z,96.29
2022-12-08T09:04:05.285Z,96.41
2022-12-08T09:06:32.566Z,96.43
2022-12-08T09:08:59.835Z,96.87
2022-12-08T09:11:26.951Z,96.75
2022-12-08T09:13:54.843Z,97.18
2022-12-08T09:16:23.078Z,97.38
2022-12-08T09:18:50.856Z,97.73
2022-12-08T09:21:26.092Z,97.85
2022-12-08T09:23:55.346Z,97.70
2022-12-08T09:26:23.426Z,98.00
2022-12-08T09:28:51.903Z,98.05
2022-12-08T09:31:20.751Z,98.56
2022-12-08T09:33:48.426Z,98.46
2022-12-08T09:36:15.788Z,98.62
2022-12-08T09:38:42.820Z,99.04
2022-12-08T09:41:38.960Z,99.22
2022-12-08T09:44:33.294Z,99.61
2022-12-08T09:47:01.915Z,99.39
2022-12-08T09:49:40.276Z,99.67
2022-12-08T09:52:19.043Z,99.88
2022-12-08T09:54:46.197Z,99.93
2022-12-08T09:57:19.718Z,100.00
2022-12-08T09:59:53.598Z,100.00
2022-12-08T10:02:26.837Z,100.00
2022-12-08T10:04:56.317Z,100.00
2022-12-08T10:07:45.563Z,100.00
2022-12-08T10:10:21.468Z,100.00
2022-12-08T10:12:59.890Z,100.00
2022-12-08T10:15:46.317Z,100.00
2022-12-08T10:18:19.500Z,100.00
2022-12-08T10:20:49.315Z,100.00
2022-12-08T10:23:29.149Z,100.00
2022-12-08T10:26:26.587Z,100.00
2022-12-08T10:28:53.743Z,100.00
2022-12-08T10:31:23.856Z,100.00
2022-12-08T10:34:01.286Z,100.00
2022-12-08T10:36:51.521Z,100.00
2022-12-08T10:39:33.495Z,100.00
2022-12-08T10:42:02.964Z,100.00
2022-12-08T10:44:30.258Z,100.00
2022-12-08T10:46:58.710Z,100.00
2022-12-08T10:49:32.495Z,100.00
2022-12-08T10:51:59.667Z,100.00
2022-12-08T10:54:34.589Z,100.00
2022-12-08T10:57:02.012Z,100.00
2022-12-08T10:59:29.447Z,100.00
2022-12-08T11:01:57.772Z,100.00
2022-12-08T11:04:36.718Z,100.00
2022-12-08T11:07:06.552Z,100.00
2022-12-08T11:09:50.965Z,100.00
2022-12-08T11:12:22.325Z,100.00
2022-12-08T11:15:01.621Z,100.00
2022-12-08T11:17:35.999Z,100.00
2022-12-08T11:20:22.574Z,100.00
2022-12-08T11:22:55.242Z,100.00
2022-12-08T11:25:26.149Z,100.00
2022-12-08T11:27:57.539Z,100.00
2022-12-08T11:30:49.039Z,100.00
2022-12-08T11:33:16.069Z,100.00
2022-12-08T11:35:52.051Z,100.00
2022-12-08T11:38:25.051Z,100.00
2022-12-08T11:41:12.301Z,100.00
2022-12-08T11:43:48.501Z,100.00
2022-12-08T11:46:21.313Z,100.00
2022-12-08T11:48:55.057Z,100.00
2022-12-08T11:51:32.532Z,100.00
2022-12-08T11:54:02.313Z,100.00
2022-12-08T11:56:40.610Z,100.00
2022-12-08T11:59:31.790Z,100.00
2022-12-08T12:02:01.127Z,100.00
2022-12-08T12:04:50.964Z,100.00
2022-12-08T12:07:23.021Z,100.00
2022-12-08T12:10:14.886Z,100.00
2022-12-08T12:13:13.608Z,100.00
2022-12-08T12:16:22.034Z,100.00
2022-12-08T12:19:03.429Z,100.00
2022-12-08T12:21:40.161Z,100.00
2022-12-08T12:24:10.203Z,100.00
2022-12-08T12:27:10.178Z,100.00
2022-12-08T12:29:39.040Z,100.00
2022-12-08T12:32:08.888Z,100.00
2022-12-08T12:34:39.294Z,100.00
2022-12-08T12:37:11.336Z,100.00
2022-12-08T12:39:53.102Z,100.00
2022-12-08T12:42:42.691Z,100.00
2022-12-08T12:45:20.172Z,100.00
2022-12-08T12:47:56.232Z,100.00
2022-12-08T12:50:43.811Z,100.00
2022-12-08T12:53:16.528Z,100.00
2022-12-08T12:55:46.575Z,100.00
2022-12-08T12:58:36.664Z,100.00
2022-12-08T13:01:15.327Z,100.00
2022-12-08T13:03:49.960Z,100.00
2022-12-08T13:06:38.302Z,100.00
2022-12-08T13:09:07.466Z,100.00
2022-12-08T13:11:51.505Z,100.00
2022-12-08T13:14:29.634Z,100.00
2022-12-08T13:16:59.223Z,100.00
2022-12-08T13:19:29.662Z,100.00
2022-12-08T13:21:56.844Z,100.00
2022-12-08T13:24:29.620Z,100.00
2022-12-08T13:27:05.771Z,100.00
2022-12-08T13:29:34.117Z,100.00
2022-12-08T13:32:02.019Z,100.00
2022-12-08T13:34:33.420Z,100.00
2022-12-08T13:37:09.143Z,100.00
2022-12-08T13:39:39.207Z,100.00
2022-12-08T13:42:29.336Z,100.00
2022-12-08T13:45:30.152Z,100.00
2022-12-08T13:54:56.034Z,100.00
2022-12-08T13:57:05.133Z,100.00
2022-12-08T13:59:34.533Z,100.00
2022-12-08T14:02:30.344Z,100.00
2022-12-08T14:07:47.013Z,100.00
2022-12-08T14:10:21.101Z,100.00
2022-12-08T14:12:55.525Z,100.00
2022-12-08T14:15:22.857Z,100.00
2022-12-08T14:17:57.575Z,100.00
2022-12-08T14:20:33.814Z,100.00
2022-12-08T14:23:09.943Z,100.00
2022-12-08T14:25:38.901Z,100.00
2022-12-08T14:28:06.095Z,100.00
2022-12-08T14:30:34.775Z,100.00
2022-12-08T14:33:04.701Z,100.00
2022-12-08T14:35:39.094Z,100.00
2022-12-08T14:38:13.897Z,100.00
2022-12-08T14:40:46.699Z,100.00
2022-12-08T14:43:20.079Z,100.00
2022-12-08T14:45:48.443Z,100.00
2022-12-08T14:48:38.930Z,100.00
2022-12-08T14:51:12.691Z,100.00
2022-12-08T14:54:06.711Z,100.00
2022-12-08T14:56:38.851Z,100.00
2022-12-08T14:59:38.296Z,100.00
2022-12-08T15:02:20.003Z,100.00
2022-12-08T15:04:56.305Z,100.00
2022-12-08T15:07:26.314Z,100.00
2022-12-08T15:10:26.913Z,100.00
2022-12-08T15:13:07.563Z,100.00
2022-12-08T15:15:51.120Z,100.00
2022-12-08T15:18:21.803Z,100.00
2022-12-08T15:21:01.566Z,100.00
2022-12-08T15:23:42.845Z,100.00
2022-12-08T15:26:23.613Z,100.00
2022-12-08T15:28:51.421Z,100.00
2022-12-08T15:31:19.245Z,100.00
2022-12-08T15:33:46.387Z,100.00
2022-12-08T15:36:13.499Z,100.00
2022-12-08T15:38:40.561Z,100.00
2022-12-08T15:41:13.026Z,100.00
2022-12-08T15:43:41.860Z,100.00
2022-12-08T15:46:09.094Z,100.00
2022-12-08T15:48:37.938Z,100.00
2022-12-08T15:51:05.273Z,100.00
2022-12-08T15:53:32.286Z,100.00
2022-12-08T15:56:26.860Z,100.00
2022-12-08T15:58:54.754Z,100.00
2022-12-08T16:01:22.870Z,100.00
2022-12-08T16:07:19.763Z,100.00
2022-12-08T16:09:33.572Z,100.00
2022-12-08T16:12:19.502Z,100.00
2022-12-08T16:15:47.248Z,100.00
2022-12-08T16:17:34.287Z,100.00
2022-12-08T16:20:01.981Z,100.00
2022-12-08T16:25:22.437Z,100.00
2022-12-08T16:28:08.255Z,100.00
2022-12-08T16:30:40.005Z,100.00
2022-12-08T16:33:07.124Z,100.00
2022-12-08T16:35:34.203Z,100.00
2022-12-08T16:38:01.419Z,100.00
2022-12-08T16:40:28.666Z,100.00
2022-12-08T16:42:55.723Z,100.00
2022-12-08T16:45:28.659Z,100.00
2022-12-08T16:48:00.736Z,100.00
2022-12-08T16:50:29.533Z,100.00
2022-12-08T16:52:59.906Z,100.00
2022-12-08T16:55:27.617Z,100.00
2022-12-08T16:57:55.184Z,100.00
2022-12-08T17:00:25.046Z,100.00
2022-12-08T17:02:53.121Z,100.00
2022-12-08T17:05:22.810Z,100.00
2022-12-08T17:07:51.502Z,100.00
2022-12-08T17:10:25.315Z,100.00
2022-12-08T17:12:53.488Z,100.00
2022-12-08T17:15:23.891Z,100.00
2022-12-08T17:17:51.891Z,100.00
2022-12-08T17:20:29.682Z,100.00
2022-12-08T17:22:58.396Z,100.00
2022-12-08T17:25:26.987Z,100.00
2022-12-08T17:27:54.763Z,100.00
2022-12-08T17:30:22.101Z,100.00
2022-12-08T17:32:49.209Z,100.00
2022-12-08T17:35:16.383Z,100.00
2022-12-08T17:37:44.181Z,100.00
2022-12-08T17:40:11.741Z,100.00
2022-12-08T17:42:39.192Z,100.00
2022-12-08T17:45:10.371Z,100.00
2022-12-08T17:47:37.914Z,100.00
2022-12-08T17:50:06.861Z,100.00
2022-12-08T17:52:34.503Z,100.00
2022-12-08T17:55:01.579Z,100.00
2022-12-08T17:57:28.690Z,100.00
2022-12-08T17:59:56.005Z,100.00
2022-12-08T18:02:23.381Z,100.00
2022-12-08T18:04:50.594Z,100.00
2022-12-08T18:07:17.771Z,100.00
2022-12-08T18:09:44.843Z,100.00
2022-12-08T18:12:11.985Z,100.00
2022-12-08T18:14:39.084Z,100.00
2022-12-08T18:17:06.271Z,100.00
2022-12-08T18:19:33.744Z,100.00
2022-12-08T18:22:01.686Z,100.00
2022-12-08T18:24:28.855Z,100.00
2022-12-08T18:26:57.606Z,100.00
2022-12-08T18:29:25.359Z,100.00
2022-12-08T18:31:52.574Z,100.00
2022-12-08T18:34:19.988Z,100.00
2022-12-08T18:36:48.062Z,100.00
2022-12-08T18:39:32.481Z,100.00
2022-12-08T18:42:02.770Z,100.00
2022-12-08T18:44:29.993Z,100.00
2022-12-08T18:46:57.098Z,100.00
2022-12-08T18:49:24.096Z,100.00
2022-12-08T18:51:51.203Z,100.00
2022-12-08T18:54:22.028Z,100.00
2022-12-08T18:56:51.617Z,100.00
2022-12-08T18:59:20.700Z,100.00
2022-12-08T19:01:47.755Z,100.00
2022-12-08T19:04:32.643Z,100.00
2022-12-08T19:07:01.812Z,100.00
2022-12-08T19:09:29.290Z,100.00
2022-12-08T19:11:57.315Z,100.00
2022-12-08T19:14:28.286Z,100.00
2022-12-08T19:16:59.782Z,100.00
2022-12-08T19:19:27.799Z,100.00
2022-12-08T19:21:55.110Z,100.00
2022-12-08T19:24:22.539Z,100.00
2022-12-08T19:26:49.810Z,100.00
2022-12-08T19:29:17.288Z,100.00
2022-12-08T19:31:44.635Z,100.00
2022-12-08T19:34:13.699Z,100.00
2022-12-08T19:36:43.180Z,100.00
2022-12-08T19:39:46.823Z,100.00
2022-12-08T19:42:38.681Z,100.00
2022-12-08T19:45:07.891Z,100.00
2022-12-08T19:47:35.132Z,100.00
2022-12-08T19:50:22.515Z,100.00
2022-12-08T19:52:50.111Z,100.00
2022-12-08T19:55:17.341Z,100.00
2022-12-08T19:57:44.483Z,100.00
2022-12-08T20:00:13.072Z,100.00
2022-12-08T20:02:40.294Z,100.00
2022-12-08T20:05:08.925Z,100.00
2022-12-08T20:07:36.212Z,100.00
2022-12-08T20:10:07.321Z,100.00
2022-12-08T20:12:34.581Z,100.00
2022-12-08T20:15:01.860Z,100.00
2022-12-08T20:17:28.931Z,100.00
2022-12-08T20:19:56.009Z,100.00
2022-12-08T20:22:23.088Z,100.00
2022-12-08T20:24:58.267Z,100.00
2022-12-08T20:27:29.272Z,100.00
2022-12-08T20:29:56.416Z,100.00
2022-12-08T20:32:23.571Z,100.00
2022-12-08T20:34:50.796Z,100.00
2022-12-08T20:37:17.870Z,100.00
2022-12-08T20:39:44.994Z,100.00
2022-12-08T20:42:13.986Z,100.00
2022-12-08T20:44:44.663Z,100.00
2022-12-08T20:47:13.167Z,100.00
2022-12-08T20:49:40.439Z,100.00
2022-12-08T20:52:08.641Z,100.00
2022-12-08T20:54:37.346Z,100.00
2022-12-08T20:57:04.930Z,100.00
2022-12-08T20:59:32.372Z,100.00
2022-12-08T21:02:00.794Z,100.00
2022-12-08T21:04:28.293Z,100.00
2022-12-08T21:06:55.801Z,100.00
2022-12-08T21:09:23.209Z,100.00
2022-12-08T21:11:50.429Z,100.00
2022-12-08T21:14:17.978Z,100.00
2022-12-08T21:16:45.589Z,100.00
2022-12-08T21:19:13.088Z,100.00
2022-12-08T21:21:40.221Z,100.00
2022-12-08T21:24:07.812Z,100.00
2022-12-08T21:26:34.872Z,100.00
2022-12-08T21:29:01.983Z,100.00
2022-12-08T21:31:31.982Z,100.00
2022-12-08T21:33:59.918Z,100.00
2022-12-08T21:36:27.452Z,100.00
2022-12-08T21:38:55.294Z,100.00
2022-12-08T21:41:42.115Z,100.00
2022-12-08T21:44:11.930Z,100.00
2022-12-08T21:46:39.215Z,100.00
2022-12-08T21:49:06.724Z,100.00
2022-12-08T21:51:37.942Z,100.00
2022-12-08T21:54:05.429Z,100.00
2022-12-08T21:56:32.635Z,100.00
2022-12-08T21:58:59.867Z,100.00
2022-12-08T22:01:27.198Z,100.00
2022-12-08T22:03:54.812Z,100.00
2022-12-08T22:06:22.123Z,100.00
2022-12-08T22:08:49.281Z,100.00
2022-12-08T22:11:17.077Z,100.00
2022-12-08T22:13:44.438Z,100.00
2022-12-08T22:16:14.966Z,100.00
2022-12-08T22:18:42.608Z,100.00
2022-12-08T22:21:18.399Z,100.00
2022-12-08T22:23:45.613Z,100.00
2022-12-08T22:26:13.541Z,100.00
2022-12-08T22:28:43.039Z,100.00
2022-12-08T22:31:18.565Z,100.00
2022-12-08T22:33:45.995Z,100.00
2022-12-08T22:36:19.432Z,100.00
2022-12-08T22:38:47.329Z,100.00
2022-12-08T22:41:15.413Z,100.00
2022-12-08T22:43:43.012Z,100.00
2022-12-08T22:46:14.462Z,100.00
2022-12-08T22:48:41.884Z,100.00
2022-12-08T22:51:09.784Z,100.00
2022-12-08T22:53:37.201Z,100.00
2022-12-08T22:56:05.777Z,100.00
2022-12-08T22:58:33.086Z,100.00
2022-12-08T23:01:00.328Z,100.00
2022-12-08T23:03:27.462Z,100.00
2022-12-08T23:05:54.736Z,100.00
2022-12-08T23:08:21.860Z,100.00
2022-12-08T23:10:51.070Z,100.00
2022-12-08T23:13:18.618Z,100.00
2022-12-08T23:15:46.029Z,100.00
2022-12-08T23:18:19.274Z,100.00
2022-12-08T23:20:47.779Z,100.00
2022-12-08T23:23:15.449Z,100.00
2022-12-08T23:25:43.861Z,100.00
2022-12-08T23:28:11.387Z,100.00
2022-12-08T23:30:41.453Z,100.00
2022-12-08T23:33:08.619Z,100.00
2022-12-08T23:35:35.869Z,100.00
2022-12-08T23:38:03.011Z,100.00
2022-12-08T23:40:30.540Z,100.00
2022-12-08T23:42:57.751Z,100.00
2022-12-08T23:45:24.908Z,100.00
2022-12-08T23:47:52.309Z,100.00
2022-12-08T23:50:19.677Z,100.00
2022-12-08T23:52:46.799Z,100.00
2022-12-08T23:55:19.461Z,100.00
2022-12-08T23:57:46.773Z,100.00
